createdAt,value
2022-12-20T00:00:03.224Z,9.82
2022-12-20T00:00:35.690Z,9.82
2022-12-20T00:01:08.155Z,9.83
2022-12-20T00:01:40.994Z,9.88
2022-12-20T00:02:13.597Z,9.93
2022-12-20T00:02:46.160Z,9.93
2022-12-20T00:03:19.063Z,9.94
2022-12-20T00:03:51.529Z,9.94
2022-12-20T00:04:24.008Z,9.97
2022-12-20T00:04:56.501Z,9.94
2022-12-20T00:05:29.010Z,9.94
2022-12-20T00:06:01.539Z,9.96
2022-12-20T00:06:34.035Z,9.99
2022-12-20T00:07:06.535Z,9.99
2022-12-20T00:07:39.071Z,9.99
2022-12-20T00:08:11.519Z,9.99
2022-12-20T00:08:44.491Z,9.97
2022-12-20T00:09:16.942Z,9.94
2022-12-20T00:09:49.398Z,9.96
2022-12-20T00:10:21.899Z,9.97
2022-12-20T00:10:54.440Z,9.97
2022-12-20T00:11:26.932Z,9.97
2022-12-20T00:11:59.389Z,9.96
2022-12-20T00:12:32.977Z,9.94
2022-12-20T00:13:05.529Z,9.93
2022-12-20T00:13:37.979Z,9.91
2022-12-20T00:14:10.545Z,9.93
2022-12-20T00:14:43.156Z,9.93
2022-12-20T00:15:15.967Z,9.96
2022-12-20T00:15:48.440Z,9.93
2022-12-20T00:16:20.898Z,9.93
2022-12-20T00:16:53.392Z,9.93
2022-12-20T00:17:26.180Z,9.89
2022-12-20T00:17:58.750Z,9.91
2022-12-20T00:18:31.151Z,9.89
2022-12-20T00:19:03.618Z,9.91
2022-12-20T00:19:36.435Z,9.93
2022-12-20T00:20:08.927Z,9.91
2022-12-20T00:20:41.477Z,9.96
2022-12-20T00:21:13.955Z,9.97
2022-12-20T00:21:46.399Z,10.01
2022-12-20T00:22:19.212Z,10.03
2022-12-20T00:22:51.726Z,10.03
2022-12-20T00:23:24.463Z,10.03
2022-12-20T00:23:56.930Z,10.03
2022-12-20T00:24:29.615Z,10.04
2022-12-20T00:25:02.076Z,10.06
2022-12-20T00:25:34.679Z,10.06
2022-12-20T00:26:08.048Z,10.09
2022-12-20T00:26:40.606Z,10.12
2022-12-20T00:27:13.049Z,10.14
2022-12-20T00:27:45.553Z,10.15
2022-12-20T00:28:18.123Z,10.17
2022-12-20T00:28:50.634Z,10.18
2022-12-20T00:29:23.084Z,10.21
2022-12-20T00:29:55.768Z,10.22
2022-12-20T00:30:28.394Z,10.25
2022-12-20T00:31:00.813Z,10.25
2022-12-20T00:31:33.335Z,10.26
2022-12-20T00:32:05.916Z,10.24
2022-12-20T00:32:38.170Z,10.25
2022-12-20T00:33:10.623Z,10.26
2022-12-20T00:33:43.167Z,10.25
2022-12-20T00:34:15.686Z,10.28
2022-12-20T00:34:48.172Z,10.28
2022-12-20T00:35:20.601Z,10.30
2022-12-20T00:35:53.073Z,10.26
2022-12-20T00:36:25.598Z,10.25
2022-12-20T00:36:58.303Z,10.24
2022-12-20T00:37:30.792Z,10.21
2022-12-20T00:38:03.299Z,10.22
2022-12-20T00:38:35.888Z,10.19
2022-12-20T00:39:08.453Z,10.21
2022-12-20T00:39:41.098Z,10.19
2022-12-20T00:40:13.627Z,10.18
2022-12-20T00:40:46.126Z,10.18
2022-12-20T00:41:18.676Z,10.15
2022-12-20T00:41:51.257Z,10.15
2022-12-20T00:42:23.765Z,10.15
2022-12-20T00:42:56.257Z,10.17
2022-12-20T00:43:28.752Z,10.18
2022-12-20T00:44:01.245Z,10.17
2022-12-20T00:44:33.871Z,10.17
2022-12-20T00:45:06.381Z,10.17
2022-12-20T00:45:38.897Z,10.19
2022-12-20T00:46:11.429Z,10.18
2022-12-20T00:46:43.894Z,10.15
2022-12-20T00:47:16.481Z,10.15
2022-12-20T00:47:48.825Z,10.17
2022-12-20T00:48:21.301Z,10.15
2022-12-20T00:48:53.849Z,10.19
2022-12-20T00:49:26.270Z,10.19
2022-12-20T00:49:59.540Z,10.22
2022-12-20T00:50:31.968Z,10.22
2022-12-20T00:51:04.445Z,10.24
2022-12-20T00:51:36.872Z,10.22
2022-12-20T00:52:09.438Z,10.21
2022-12-20T00:52:41.952Z,10.21
2022-12-20T00:53:14.390Z,10.22
2022-12-20T00:53:46.880Z,10.24
2022-12-20T00:54:19.327Z,10.25
2022-12-20T00:54:52.344Z,10.25
2022-12-20T00:55:24.808Z,10.25
2022-12-20T00:55:57.312Z,10.26
2022-12-20T00:56:29.801Z,10.25
2022-12-20T00:57:02.319Z,10.24
2022-12-20T00:57:34.799Z,10.24
2022-12-20T00:58:07.230Z,10.22
2022-12-20T00:58:39.683Z,10.24
2022-12-20T00:59:12.189Z,10.24
2022-12-20T00:59:44.747Z,10.25
2022-12-20T01:00:17.214Z,10.24
2022-12-20T01:00:55.879Z,10.25
2022-12-20T01:01:22.417Z,10.24
2022-12-20T01:01:54.856Z,10.26
2022-12-20T01:02:27.405Z,10.24
2022-12-20T01:02:59.705Z,10.24
2022-12-20T01:03:32.699Z,10.22
2022-12-20T01:04:05.091Z,10.24
2022-12-20T01:04:37.579Z,10.24
2022-12-20T01:05:10.167Z,10.25
2022-12-20T01:05:43.644Z,10.25
2022-12-20T01:06:16.105Z,10.25
2022-12-20T01:06:48.651Z,10.25
2022-12-20T01:07:21.086Z,10.24
2022-12-20T01:07:53.612Z,10.24
2022-12-20T01:08:26.293Z,10.24
2022-12-20T01:08:58.748Z,10.25
2022-12-20T01:09:31.200Z,10.32
2022-12-20T01:10:03.754Z,10.32
2022-12-20T01:10:36.295Z,10.30
2022-12-20T01:11:08.810Z,10.32
2022-12-20T01:11:41.269Z,10.33
2022-12-20T01:12:13.755Z,10.33
2022-12-20T01:12:46.265Z,10.37
2022-12-20T01:13:18.999Z,10.36
2022-12-20T01:13:51.739Z,10.37
2022-12-20T01:14:24.381Z,10.36
2022-12-20T01:14:57.016Z,10.34
2022-12-20T01:15:29.523Z,10.34
2022-12-20T01:16:02.077Z,10.36
2022-12-20T01:16:34.648Z,10.36
2022-12-20T01:17:07.331Z,10.36
2022-12-20T01:17:39.816Z,10.37
2022-12-20T01:18:12.301Z,10.36
2022-12-20T01:18:44.753Z,10.34
2022-12-20T01:19:17.225Z,10.33
2022-12-20T01:19:49.704Z,10.33
2022-12-20T01:20:22.199Z,10.34
2022-12-20T01:20:54.735Z,10.34
2022-12-20T01:21:27.290Z,10.34
2022-12-20T01:21:59.753Z,10.34
2022-12-20T01:22:33.037Z,10.32
2022-12-20T01:23:05.539Z,10.34
2022-12-20T01:23:38.029Z,10.34
2022-12-20T01:24:10.545Z,10.34
2022-12-20T01:24:42.973Z,10.36
2022-12-20T01:25:15.469Z,10.33
2022-12-20T01:25:47.965Z,10.34
2022-12-20T01:26:20.462Z,10.33
2022-12-20T01:26:53.112Z,10.32
2022-12-20T01:27:25.607Z,10.30
2022-12-20T01:27:58.090Z,10.34
2022-12-20T01:28:30.788Z,10.34
2022-12-20T01:29:03.248Z,10.37
2022-12-20T01:29:35.673Z,10.36
2022-12-20T01:30:08.123Z,10.36
2022-12-20T01:30:40.636Z,10.37
2022-12-20T01:31:13.212Z,10.37
2022-12-20T01:31:45.665Z,10.39
2022-12-20T01:32:18.195Z,10.43
2022-12-20T01:32:50.951Z,10.46
2022-12-20T01:33:23.393Z,10.47
2022-12-20T01:33:55.886Z,10.51
2022-12-20T01:34:29.156Z,10.52
2022-12-20T01:35:01.655Z,10.52
2022-12-20T01:35:34.154Z,10.52
2022-12-20T01:36:06.622Z,10.55
2022-12-20T01:36:39.168Z,10.58
2022-12-20T01:37:11.654Z,10.59
2022-12-20T01:37:44.328Z,10.59
2022-12-20T01:38:16.786Z,10.60
2022-12-20T01:38:49.304Z,10.60
2022-12-20T01:39:21.804Z,10.59
2022-12-20T01:39:54.247Z,10.63
2022-12-20T01:40:26.779Z,10.66
2022-12-20T01:40:59.334Z,10.66
2022-12-20T01:41:31.844Z,10.70
2022-12-20T01:42:04.403Z,10.71
2022-12-20T01:42:36.906Z,10.71
2022-12-20T01:43:09.384Z,10.73
2022-12-20T01:43:41.839Z,10.71
2022-12-20T01:44:14.263Z,10.71
2022-12-20T01:44:46.722Z,10.70
2022-12-20T01:45:19.246Z,10.70
2022-12-20T01:45:51.754Z,10.68
2022-12-20T01:46:24.257Z,10.68
2022-12-20T01:46:57.191Z,10.68
2022-12-20T01:47:29.799Z,10.70
2022-12-20T01:48:02.271Z,10.68
2022-12-20T01:48:34.758Z,10.70
2022-12-20T01:49:07.360Z,10.68
2022-12-20T01:49:39.888Z,10.70
2022-12-20T01:50:12.438Z,10.70
2022-12-20T01:50:44.971Z,10.71
2022-12-20T01:51:18.067Z,10.70
2022-12-20T01:51:50.509Z,10.70
2022-12-20T01:52:22.946Z,10.68
2022-12-20T01:52:55.844Z,10.66
2022-12-20T01:53:28.386Z,10.63
2022-12-20T01:54:00.848Z,10.63
2022-12-20T01:54:33.583Z,10.63
2022-12-20T01:55:06.486Z,10.66
2022-12-20T01:55:39.040Z,10.65
2022-12-20T01:56:11.489Z,10.65
2022-12-20T01:56:44.559Z,10.65
2022-12-20T01:57:17.079Z,10.65
2022-12-20T01:57:49.597Z,10.63
2022-12-20T01:58:22.131Z,10.65
2022-12-20T01:58:54.619Z,10.65
2022-12-20T01:59:27.377Z,10.62
2022-12-20T01:59:59.937Z,10.60
2022-12-20T02:00:32.551Z,10.59
2022-12-20T02:01:06.034Z,10.59
2022-12-20T02:01:38.533Z,10.58
2022-12-20T02:02:11.089Z,10.59
2022-12-20T02:02:43.541Z,10.59
2022-12-20T02:03:16.022Z,10.58
2022-12-20T02:03:48.345Z,10.60
2022-12-20T02:04:20.888Z,10.62
2022-12-20T02:04:53.342Z,10.62
2022-12-20T02:05:25.803Z,10.63
2022-12-20T02:05:58.296Z,10.63
2022-12-20T02:06:30.815Z,10.63
2022-12-20T02:07:03.302Z,10.62
2022-12-20T02:07:35.794Z,10.65
2022-12-20T02:08:08.888Z,10.66
2022-12-20T02:08:41.387Z,10.66
2022-12-20T02:09:13.912Z,10.66
2022-12-20T02:09:46.392Z,10.66
2022-12-20T02:10:19.140Z,10.68
2022-12-20T02:10:51.689Z,10.66
2022-12-20T02:11:24.260Z,10.68
2022-12-20T02:11:56.735Z,10.68
2022-12-20T02:12:29.208Z,10.70
2022-12-20T02:13:01.695Z,10.68
2022-12-20T02:13:34.136Z,10.71
2022-12-20T02:14:06.606Z,10.71
2022-12-20T02:14:39.039Z,10.73
2022-12-20T02:15:11.538Z,10.74
2022-12-20T02:15:44.207Z,10.74
2022-12-20T02:16:16.751Z,10.74
2022-12-20T02:16:49.326Z,10.74
2022-12-20T02:17:21.783Z,10.74
2022-12-20T02:17:54.313Z,10.73
2022-12-20T02:18:26.819Z,10.74
2022-12-20T02:18:59.278Z,10.74
2022-12-20T02:19:31.703Z,10.74
2022-12-20T02:20:04.173Z,10.74
2022-12-20T02:20:36.643Z,10.74
2022-12-20T02:21:09.539Z,10.73
2022-12-20T02:21:42.052Z,10.74
2022-12-20T02:22:14.554Z,10.73
2022-12-20T02:22:47.211Z,10.73
2022-12-20T02:23:20.704Z,10.76
2022-12-20T02:23:53.220Z,10.74
2022-12-20T02:24:26.316Z,10.74
2022-12-20T02:24:58.800Z,10.74
2022-12-20T02:25:31.233Z,10.76
2022-12-20T02:26:03.786Z,10.76
2022-12-20T02:26:36.383Z,10.78
2022-12-20T02:27:08.818Z,10.80
2022-12-20T02:27:41.328Z,10.83
2022-12-20T02:28:13.862Z,10.83
2022-12-20T02:28:46.394Z,10.83
2022-12-20T02:29:18.938Z,10.84
2022-12-20T02:29:51.455Z,10.89
2022-12-20T02:30:23.912Z,10.88
2022-12-20T02:30:56.432Z,10.88
2022-12-20T02:31:28.935Z,10.86
2022-12-20T02:32:01.505Z,10.84
2022-12-20T02:32:33.830Z,10.81
2022-12-20T02:33:06.328Z,10.78
2022-12-20T02:33:38.812Z,10.76
2022-12-20T02:34:11.319Z,10.76
2022-12-20T02:34:43.839Z,10.76
2022-12-20T02:35:16.268Z,10.76
2022-12-20T02:35:48.699Z,10.76
2022-12-20T02:36:21.287Z,10.77
2022-12-20T02:36:53.778Z,10.73
2022-12-20T02:37:26.262Z,10.73
2022-12-20T02:37:58.710Z,10.71
2022-12-20T02:38:31.197Z,10.74
2022-12-20T02:39:03.674Z,10.74
2022-12-20T02:39:36.159Z,10.74
2022-12-20T02:40:08.605Z,10.73
2022-12-20T02:40:41.073Z,10.73
2022-12-20T02:41:13.580Z,10.71
2022-12-20T02:41:46.056Z,10.73
2022-12-20T02:42:18.594Z,10.73
2022-12-20T02:42:51.118Z,10.74
2022-12-20T02:43:23.638Z,10.73
2022-12-20T02:43:56.157Z,10.74
2022-12-20T02:44:28.648Z,10.71
2022-12-20T02:45:01.088Z,10.71
2022-12-20T02:45:33.546Z,10.68
2022-12-20T02:46:06.021Z,10.66
2022-12-20T02:46:38.415Z,10.65
2022-12-20T02:47:10.908Z,10.65
2022-12-20T02:47:43.408Z,10.63
2022-12-20T02:48:15.846Z,10.63
2022-12-20T02:48:48.393Z,10.59
2022-12-20T02:49:20.844Z,10.58
2022-12-20T02:49:53.270Z,10.59
2022-12-20T02:50:25.715Z,10.56
2022-12-20T02:50:58.224Z,10.56
2022-12-20T02:51:30.759Z,10.55
2022-12-20T02:52:03.231Z,10.55
2022-12-20T02:52:35.685Z,10.55
2022-12-20T02:53:08.214Z,10.55
2022-12-20T02:53:42.680Z,10.53
2022-12-20T02:54:13.147Z,10.55
2022-12-20T02:54:45.605Z,10.55
2022-12-20T02:55:18.102Z,10.55
2022-12-20T02:55:50.598Z,10.55
2022-12-20T02:56:23.104Z,10.55
2022-12-20T02:56:55.708Z,10.55
2022-12-20T02:57:28.142Z,10.56
2022-12-20T02:58:00.930Z,10.55
2022-12-20T02:58:33.056Z,10.55
2022-12-20T02:59:05.593Z,10.56
2022-12-20T02:59:38.215Z,10.58
2022-12-20T03:00:10.729Z,10.59
2022-12-20T03:00:43.226Z,10.60
2022-12-20T03:01:15.807Z,10.65
2022-12-20T03:01:48.371Z,10.65
2022-12-20T03:02:20.967Z,10.68
2022-12-20T03:02:53.298Z,10.65
2022-12-20T03:03:25.745Z,10.68
2022-12-20T03:03:58.109Z,10.66
2022-12-20T03:04:30.553Z,10.66
2022-12-20T03:05:02.993Z,10.65
2022-12-20T03:05:35.428Z,10.63
2022-12-20T03:06:07.937Z,10.63
2022-12-20T03:06:40.558Z,10.63
2022-12-20T03:07:13.050Z,10.60
2022-12-20T03:07:45.526Z,10.63
2022-12-20T03:08:18.066Z,10.60
2022-12-20T03:08:50.601Z,10.62
2022-12-20T03:09:23.059Z,10.59
2022-12-20T03:09:55.510Z,10.60
2022-12-20T03:10:28.007Z,10.59
2022-12-20T03:11:00.501Z,10.59
2022-12-20T03:11:33.013Z,10.59
2022-12-20T03:12:05.505Z,10.59
2022-12-20T03:12:37.945Z,10.59
2022-12-20T03:13:10.448Z,10.58
2022-12-20T03:13:42.881Z,10.58
2022-12-20T03:14:15.359Z,10.59
2022-12-20T03:14:47.795Z,10.62
2022-12-20T03:15:20.276Z,10.59
2022-12-20T03:15:52.708Z,10.60
2022-12-20T03:16:25.265Z,10.60
2022-12-20T03:16:57.774Z,10.60
2022-12-20T03:17:30.171Z,10.59
2022-12-20T03:18:02.713Z,10.60
2022-12-20T03:18:35.257Z,10.63
2022-12-20T03:19:07.806Z,10.63
2022-12-20T03:19:40.296Z,10.65
2022-12-20T03:20:12.818Z,10.66
2022-12-20T03:20:45.262Z,10.68
2022-12-20T03:21:17.800Z,10.68
2022-12-20T03:21:50.384Z,10.68
2022-12-20T03:22:23.001Z,10.68
2022-12-20T03:22:55.478Z,10.66
2022-12-20T03:23:27.983Z,10.65
2022-12-20T03:24:00.486Z,10.62
2022-12-20T03:24:32.940Z,10.60
2022-12-20T03:25:05.494Z,10.62
2022-12-20T03:25:37.833Z,10.59
2022-12-20T03:26:10.404Z,10.60
2022-12-20T03:26:42.899Z,10.59
2022-12-20T03:27:15.423Z,10.60
2022-12-20T03:27:47.850Z,10.63
2022-12-20T03:28:20.501Z,10.65
2022-12-20T03:28:52.971Z,10.65
2022-12-20T03:29:25.497Z,10.66
2022-12-20T03:29:58.012Z,10.68
2022-12-20T03:30:30.460Z,10.68
2022-12-20T03:31:02.998Z,10.68
2022-12-20T03:31:35.532Z,10.70
2022-12-20T03:32:08.014Z,10.68
2022-12-20T03:32:40.526Z,10.68
2022-12-20T03:33:13.016Z,10.66
2022-12-20T03:33:45.523Z,10.70
2022-12-20T03:34:18.003Z,10.66
2022-12-20T03:34:50.421Z,10.68
2022-12-20T03:35:22.936Z,10.66
2022-12-20T03:35:55.362Z,10.68
2022-12-20T03:36:27.823Z,10.70
2022-12-20T03:37:00.272Z,10.66
2022-12-20T03:37:32.783Z,10.68
2022-12-20T03:38:05.269Z,10.71
2022-12-20T03:38:37.702Z,10.73
2022-12-20T03:39:10.211Z,10.77
2022-12-20T03:39:42.715Z,10.76
2022-12-20T03:40:15.155Z,10.77
2022-12-20T03:40:47.614Z,10.78
2022-12-20T03:41:20.086Z,10.78
2022-12-20T03:41:52.539Z,10.80
2022-12-20T03:42:25.056Z,10.78
2022-12-20T03:42:57.536Z,10.78
2022-12-20T03:43:30.037Z,10.78
2022-12-20T03:44:02.624Z,10.78
2022-12-20T03:44:35.114Z,10.77
2022-12-20T03:45:07.569Z,10.78
2022-12-20T03:45:40.055Z,10.80
2022-12-20T03:46:12.676Z,10.80
2022-12-20T03:46:45.160Z,10.80
2022-12-20T03:47:17.558Z,10.80
2022-12-20T03:47:49.997Z,10.80
2022-12-20T03:48:22.525Z,10.81
2022-12-20T03:48:55.917Z,10.83
2022-12-20T03:49:28.434Z,10.84
2022-12-20T03:50:00.943Z,10.83
2022-12-20T03:50:33.448Z,10.83
2022-12-20T03:51:05.974Z,10.84
2022-12-20T03:51:38.593Z,10.81
2022-12-20T03:52:11.100Z,10.81
2022-12-20T03:52:43.572Z,10.80
2022-12-20T03:53:16.095Z,10.81
2022-12-20T03:53:48.711Z,10.80
2022-12-20T03:54:21.233Z,10.81
2022-12-20T03:54:53.727Z,10.81
2022-12-20T03:55:26.219Z,10.78
2022-12-20T03:55:58.740Z,10.78
2022-12-20T03:56:31.274Z,10.78
2022-12-20T03:57:03.740Z,10.76
2022-12-20T03:57:36.260Z,10.73
2022-12-20T03:58:08.714Z,10.71
2022-12-20T03:58:41.212Z,10.68
2022-12-20T03:59:13.731Z,10.65
2022-12-20T03:59:46.226Z,10.63
2022-12-20T04:00:18.694Z,10.60
2022-12-20T04:00:51.204Z,10.60
2022-12-20T04:01:23.767Z,10.59
2022-12-20T04:01:56.161Z,10.62
2022-12-20T04:02:28.732Z,10.60
2022-12-20T04:03:01.098Z,10.65
2022-12-20T04:03:33.583Z,10.66
2022-12-20T04:04:06.073Z,10.68
2022-12-20T04:04:38.616Z,10.70
2022-12-20T04:05:11.059Z,10.71
2022-12-20T04:05:43.565Z,10.76
2022-12-20T04:06:16.038Z,10.74
2022-12-20T04:06:48.494Z,10.74
2022-12-20T04:07:20.964Z,10.73
2022-12-20T04:07:53.407Z,10.73
2022-12-20T04:08:25.852Z,10.76
2022-12-20T04:08:58.309Z,10.74
2022-12-20T04:09:30.821Z,10.74
2022-12-20T04:10:03.384Z,10.73
2022-12-20T04:10:36.784Z,10.71
2022-12-20T04:11:09.288Z,10.70
2022-12-20T04:11:41.788Z,10.68
2022-12-20T04:12:14.258Z,10.65
2022-12-20T04:12:46.768Z,10.66
2022-12-20T04:13:19.323Z,10.62
2022-12-20T04:13:51.886Z,10.62
2022-12-20T04:14:24.444Z,10.62
2022-12-20T04:14:56.930Z,10.63
2022-12-20T04:15:29.579Z,10.62
2022-12-20T04:16:02.008Z,10.63
2022-12-20T04:16:34.474Z,10.63
2022-12-20T04:17:06.917Z,10.63
2022-12-20T04:17:39.448Z,10.63
2022-12-20T04:18:11.959Z,10.65
2022-12-20T04:18:44.519Z,10.65
2022-12-20T04:19:17.062Z,10.66
2022-12-20T04:19:49.564Z,10.66
2022-12-20T04:20:22.064Z,10.65
2022-12-20T04:20:54.581Z,10.65
2022-12-20T04:21:27.075Z,10.68
2022-12-20T04:22:04.692Z,10.70
2022-12-20T04:22:32.110Z,10.71
2022-12-20T04:23:04.542Z,10.71
2022-12-20T04:23:37.038Z,10.73
2022-12-20T04:24:09.537Z,10.68
2022-12-20T04:24:41.992Z,10.70
2022-12-20T04:25:14.526Z,10.68
2022-12-20T04:25:47.080Z,10.68
2022-12-20T04:26:19.548Z,10.65
2022-12-20T04:26:52.039Z,10.63
2022-12-20T04:27:24.581Z,10.62
2022-12-20T04:27:57.018Z,10.60
2022-12-20T04:28:29.562Z,10.63
2022-12-20T04:29:02.037Z,10.65
2022-12-20T04:29:34.569Z,10.63
2022-12-20T04:30:07.064Z,10.65
2022-12-20T04:30:39.575Z,10.65
2022-12-20T04:31:12.258Z,10.65
2022-12-20T04:31:44.741Z,10.62
2022-12-20T04:32:17.263Z,10.65
2022-12-20T04:32:49.728Z,10.66
2022-12-20T04:33:22.278Z,10.68
2022-12-20T04:33:54.711Z,10.68
2022-12-20T04:34:27.260Z,10.71
2022-12-20T04:34:59.814Z,10.70
2022-12-20T04:35:32.334Z,10.70
2022-12-20T04:36:04.833Z,10.68
2022-12-20T04:36:37.337Z,10.68
2022-12-20T04:37:09.751Z,10.71
2022-12-20T04:37:42.354Z,10.70
2022-12-20T04:38:14.842Z,10.71
2022-12-20T04:38:47.348Z,10.73
2022-12-20T04:39:19.805Z,10.73
2022-12-20T04:39:52.307Z,10.74
2022-12-20T04:40:24.822Z,10.71
2022-12-20T04:40:57.322Z,10.73
2022-12-20T04:41:29.848Z,10.74
2022-12-20T04:42:02.369Z,10.73
2022-12-20T04:42:34.926Z,10.70
2022-12-20T04:43:07.349Z,10.70
2022-12-20T04:43:39.885Z,10.71
2022-12-20T04:44:12.397Z,10.71
2022-12-20T04:44:44.863Z,10.68
2022-12-20T04:45:17.400Z,10.70
2022-12-20T04:45:49.877Z,10.68
2022-12-20T04:46:22.501Z,10.66
2022-12-20T04:46:55.009Z,10.62
2022-12-20T04:47:27.440Z,10.63
2022-12-20T04:48:14.697Z,10.65
2022-12-20T04:49:00.057Z,10.62
2022-12-20T04:49:05.037Z,10.63
2022-12-20T04:49:37.593Z,10.63
2022-12-20T04:50:10.098Z,10.63
2022-12-20T04:50:42.554Z,10.63
2022-12-20T04:51:15.021Z,10.63
2022-12-20T04:51:47.457Z,10.66
2022-12-20T04:52:19.963Z,10.66
2022-12-20T04:52:52.463Z,10.68
2022-12-20T04:53:25.037Z,10.65
2022-12-20T04:53:57.539Z,10.68
2022-12-20T04:54:30.083Z,10.70
2022-12-20T04:55:02.678Z,10.71
2022-12-20T04:55:35.110Z,10.73
2022-12-20T04:56:07.611Z,10.73
2022-12-20T04:56:40.096Z,10.71
2022-12-20T04:57:12.566Z,10.73
2022-12-20T04:57:45.089Z,10.71
2022-12-20T04:58:17.537Z,10.73
2022-12-20T04:58:50.007Z,10.76
2022-12-20T04:59:22.539Z,10.76
2022-12-20T04:59:55.020Z,10.74
2022-12-20T05:00:27.484Z,10.78
2022-12-20T05:00:59.909Z,10.80
2022-12-20T05:01:32.525Z,10.81
2022-12-20T05:02:05.046Z,10.83
2022-12-20T05:02:37.485Z,10.83
2022-12-20T05:03:10.045Z,10.83
2022-12-20T05:03:42.393Z,10.83
2022-12-20T05:04:14.892Z,10.81
2022-12-20T05:04:47.311Z,10.81
2022-12-20T05:05:19.756Z,10.80
2022-12-20T05:05:52.226Z,10.78
2022-12-20T05:06:24.688Z,10.80
2022-12-20T05:06:57.097Z,10.81
2022-12-20T05:07:29.609Z,10.77
2022-12-20T05:08:02.049Z,10.78
2022-12-20T05:08:34.562Z,10.76
2022-12-20T05:09:07.057Z,10.76
2022-12-20T05:09:39.598Z,10.77
2022-12-20T05:10:12.109Z,10.77
2022-12-20T05:10:44.592Z,10.78
2022-12-20T05:11:17.071Z,10.77
2022-12-20T05:11:49.522Z,10.78
2022-12-20T05:12:21.960Z,10.78
2022-12-20T05:13:07.246Z,10.77
2022-12-20T05:13:33.939Z,10.78
2022-12-20T05:14:06.451Z,10.74
2022-12-20T05:14:38.883Z,10.76
2022-12-20T05:15:11.341Z,10.74
2022-12-20T05:15:43.933Z,10.71
2022-12-20T05:16:16.381Z,10.70
2022-12-20T05:16:48.875Z,10.71
2022-12-20T05:17:21.401Z,10.66
2022-12-20T05:17:53.909Z,10.68
2022-12-20T05:18:26.402Z,10.66
2022-12-20T05:18:58.881Z,10.65
2022-12-20T05:19:31.306Z,10.62
2022-12-20T05:20:03.800Z,10.60
2022-12-20T05:20:36.436Z,10.60
2022-12-20T05:21:08.935Z,10.60
2022-12-20T05:21:41.442Z,10.62
2022-12-20T05:22:13.959Z,10.65
2022-12-20T05:22:46.469Z,10.66
2022-12-20T05:23:18.945Z,10.65
2022-12-20T05:23:51.383Z,10.63
2022-12-20T05:24:23.818Z,10.63
2022-12-20T05:24:56.268Z,10.63
2022-12-20T05:25:28.709Z,10.65
2022-12-20T05:26:01.167Z,10.63
2022-12-20T05:26:33.693Z,10.65
2022-12-20T05:27:06.117Z,10.63
2022-12-20T05:27:38.613Z,10.63
2022-12-20T05:28:11.057Z,10.63
2022-12-20T05:28:43.541Z,10.62
2022-12-20T05:29:15.995Z,10.62
2022-12-20T05:29:48.453Z,10.62
2022-12-20T05:30:20.899Z,10.60
2022-12-20T05:30:53.495Z,10.62
2022-12-20T05:31:25.984Z,10.59
2022-12-20T05:31:58.405Z,10.60
2022-12-20T05:32:30.850Z,10.56
2022-12-20T05:33:03.285Z,10.56
2022-12-20T05:33:35.815Z,10.56
2022-12-20T05:34:08.264Z,10.55
2022-12-20T05:34:40.752Z,10.55
2022-12-20T05:35:13.205Z,10.58
2022-12-20T05:35:45.671Z,10.55
2022-12-20T05:36:18.099Z,10.56
2022-12-20T05:36:50.628Z,10.56
2022-12-20T05:37:23.101Z,10.59
2022-12-20T05:37:55.643Z,10.59
2022-12-20T05:38:28.131Z,10.58
2022-12-20T05:39:04.300Z,10.58
2022-12-20T05:39:33.206Z,10.58
2022-12-20T05:40:05.673Z,10.58
2022-12-20T05:40:38.180Z,10.59
2022-12-20T05:41:10.687Z,10.60
2022-12-20T05:41:43.255Z,10.63
2022-12-20T05:42:15.859Z,10.63
2022-12-20T05:42:48.357Z,10.62
2022-12-20T05:43:20.878Z,10.62
2022-12-20T05:43:53.327Z,10.63
2022-12-20T05:44:25.966Z,10.63
2022-12-20T05:44:58.297Z,10.65
2022-12-20T05:45:30.784Z,10.65
2022-12-20T05:46:03.234Z,10.65
2022-12-20T05:46:36.624Z,10.65
2022-12-20T05:47:09.054Z,10.65
2022-12-20T05:47:41.451Z,10.62
2022-12-20T05:48:13.918Z,10.63
2022-12-20T05:48:46.351Z,10.59
2022-12-20T05:49:18.800Z,10.59
2022-12-20T05:49:51.247Z,10.60
2022-12-20T05:50:23.684Z,10.60
2022-12-20T05:50:56.150Z,10.59
2022-12-20T05:51:28.616Z,10.60
2022-12-20T05:52:01.142Z,10.60
2022-12-20T05:52:33.663Z,10.62
2022-12-20T05:53:11.220Z,10.60
2022-12-20T05:53:38.694Z,10.60
2022-12-20T05:54:11.219Z,10.60
2022-12-20T05:54:43.708Z,10.62
2022-12-20T05:55:16.271Z,10.63
2022-12-20T05:55:48.778Z,10.62
2022-12-20T05:56:21.284Z,10.62
2022-12-20T05:56:53.720Z,10.65
2022-12-20T05:57:26.172Z,10.63
2022-12-20T05:57:58.622Z,10.65
2022-12-20T05:58:31.076Z,10.62
2022-12-20T05:59:03.500Z,10.65
2022-12-20T05:59:35.954Z,10.66
2022-12-20T06:00:08.417Z,10.68
2022-12-20T06:00:40.926Z,10.66
2022-12-20T06:01:13.440Z,10.66
2022-12-20T06:01:46.020Z,10.65
2022-12-20T06:02:18.551Z,10.65
2022-12-20T06:02:51.226Z,10.63
2022-12-20T06:03:23.583Z,10.65
2022-12-20T06:03:56.030Z,10.65
2022-12-20T06:04:28.416Z,10.66
2022-12-20T06:05:00.881Z,10.66
2022-12-20T06:05:33.346Z,10.70
2022-12-20T06:06:10.204Z,10.68
2022-12-20T06:06:38.352Z,10.68
2022-12-20T06:07:10.800Z,10.70
2022-12-20T06:07:43.250Z,10.73
2022-12-20T06:08:15.685Z,10.68
2022-12-20T06:08:48.135Z,10.70
2022-12-20T06:09:20.560Z,10.71
2022-12-20T06:09:53.090Z,10.73
2022-12-20T06:10:25.617Z,10.70
2022-12-20T06:10:58.089Z,10.70
2022-12-20T06:11:30.771Z,10.71
2022-12-20T06:12:02.965Z,10.71
2022-12-20T06:12:35.389Z,10.71
2022-12-20T06:13:07.897Z,10.73
2022-12-20T06:13:40.449Z,10.73
2022-12-20T06:14:12.943Z,10.71
2022-12-20T06:14:45.392Z,10.71
2022-12-20T06:15:17.854Z,10.71
2022-12-20T06:15:50.291Z,10.68
2022-12-20T06:16:22.780Z,10.68
2022-12-20T06:16:55.258Z,10.68
2022-12-20T06:17:27.704Z,10.71
2022-12-20T06:18:00.286Z,10.71
2022-12-20T06:18:32.792Z,10.71
2022-12-20T06:19:05.248Z,10.73
2022-12-20T06:19:37.701Z,10.71
2022-12-20T06:20:10.201Z,10.73
2022-12-20T06:20:42.703Z,10.73
2022-12-20T06:21:15.150Z,10.74
2022-12-20T06:21:47.644Z,10.76
2022-12-20T06:22:20.247Z,10.73
2022-12-20T06:22:52.925Z,10.73
2022-12-20T06:23:25.542Z,10.73
2022-12-20T06:23:58.056Z,10.71
2022-12-20T06:24:30.572Z,10.71
2022-12-20T06:25:03.081Z,10.71
2022-12-20T06:25:35.628Z,10.70
2022-12-20T06:26:08.153Z,10.70
2022-12-20T06:26:40.766Z,10.68
2022-12-20T06:27:13.304Z,10.70
2022-12-20T06:27:45.752Z,10.68
2022-12-20T06:28:18.184Z,10.66
2022-12-20T06:29:09.993Z,10.66
2022-12-20T06:29:42.531Z,10.65
2022-12-20T06:30:14.998Z,10.63
2022-12-20T06:30:47.495Z,10.65
2022-12-20T06:31:20.035Z,10.62
2022-12-20T06:31:52.609Z,10.63
2022-12-20T06:32:24.951Z,10.62
2022-12-20T06:32:57.480Z,10.63
2022-12-20T06:33:29.967Z,10.62
2022-12-20T06:34:02.647Z,10.63
2022-12-20T06:34:35.092Z,10.63
2022-12-20T06:35:07.605Z,10.63
2022-12-20T06:35:40.135Z,10.65
2022-12-20T06:36:12.765Z,10.66
2022-12-20T06:36:45.225Z,10.66
2022-12-20T06:37:17.675Z,10.68
2022-12-20T06:37:50.133Z,10.66
2022-12-20T06:38:22.612Z,10.66
2022-12-20T06:38:55.082Z,10.66
2022-12-20T06:39:27.536Z,10.66
2022-12-20T06:40:00.074Z,10.66
2022-12-20T06:40:32.546Z,10.66
2022-12-20T06:41:05.069Z,10.66
2022-12-20T06:41:37.556Z,10.66
2022-12-20T06:42:10.029Z,10.63
2022-12-20T06:42:42.472Z,10.63
2022-12-20T06:43:14.917Z,10.63
2022-12-20T06:43:47.429Z,10.62
2022-12-20T06:44:20.017Z,10.60
2022-12-20T06:44:52.482Z,10.60
2022-12-20T06:45:24.920Z,10.59
2022-12-20T06:45:57.451Z,10.60
2022-12-20T06:46:29.967Z,10.58
2022-12-20T06:47:02.360Z,10.58
2022-12-20T06:47:34.820Z,10.58
2022-12-20T06:48:07.302Z,10.58
2022-12-20T06:48:39.840Z,10.56
2022-12-20T06:49:12.344Z,10.59
2022-12-20T06:49:44.820Z,10.59
2022-12-20T06:50:17.264Z,10.59
2022-12-20T06:50:55.476Z,10.56
2022-12-20T06:51:22.276Z,10.58
2022-12-20T06:51:54.720Z,10.56
2022-12-20T06:52:27.199Z,10.58
2022-12-20T06:52:59.698Z,10.58
2022-12-20T06:53:32.189Z,10.58
2022-12-20T06:54:04.704Z,10.58
2022-12-20T06:54:37.228Z,10.56
2022-12-20T06:55:09.804Z,10.58
2022-12-20T06:55:42.301Z,10.59
2022-12-20T06:56:14.819Z,10.60
2022-12-20T06:56:47.318Z,10.62
2022-12-20T06:57:19.877Z,10.60
2022-12-20T06:57:52.349Z,10.62
2022-12-20T06:58:24.832Z,10.63
2022-12-20T06:58:57.353Z,10.66
2022-12-20T06:59:29.937Z,10.65